sensor_id;sensor_type;location;lat;lon;timestamp;P1;durP1;ratioP1;P2;durP2;ratioP2
73512;SDS011;61754;55.008;73.348;2022-09-12T00:01:19;1.30;;;1.17;;
73512;SDS011;61754;55.008;73.348;2022-09-12T00:03:46;14.05;;;1.80;;
73512;SDS011;61754;55.008;73.348;2022-09-12T00:06:16;2.70;;;1.63;;
73512;SDS011;61754;55.008;73.348;2022-09-12T00:08:43;5.55;;;1.85;;
73512;SDS011;61754;55.008;73.348;2022-09-12T00:11:14;4.65;;;1.60;;
73512;SDS011;61754;55.008;73.348;2022-09-12T00:13:50;5.90;;;2.05;;
73512;SDS011;61754;55.008;73.348;2022-09-12T00:16:22;6.00;;;2.13;;
73512;SDS011;61754;55.008;73.348;2022-09-12T00:18:49;2.30;;;1.90;;
73512;SDS011;61754;55.008;73.348;2022-09-12T00:21:16;3.10;;;2.03;;
73512;SDS011;61754;55.008;73.348;2022-09-12T00:23:43;2.40;;;1.35;;
73512;SDS011;61754;55.008;73.348;2022-09-12T00:26:10;1.88;;;1.50;;
73512;SDS011;61754;55.008;73.348;2022-09-12T00:28:40;3.85;;;1.40;;
73512;SDS011;61754;55.008;73.348;2022-09-12T00:31:21;2.15;;;1.17;;
73512;SDS011;61754;55.008;73.348;2022-09-12T00:33:48;1.20;;;0.80;;
73512;SDS011;61754;55.008;73.348;2022-09-12T00:36:16;3.90;;;1.25;;
73512;SDS011;61754;55.008;73.348;2022-09-12T00:38:47;2.15;;;1.58;;
73512;SDS011;61754;55.008;73.348;2022-09-12T00:43:46;4.63;;;1.00;;
73512;SDS011;61754;55.008;73.348;2022-09-12T00:48:53;3.95;;;1.02;;
73512;SDS011;61754;55.008;73.348;2022-09-12T00:51:31;2.05;;;1.02;;
73512;SDS011;61754;55.008;73.348;2022-09-12T00:53:58;1.10;;;0.82;;
73512;SDS011;61754;55.008;73.348;2022-09-12T00:56:24;0.70;;;0.70;;
73512;SDS011;61754;55.008;73.348;2022-09-12T00:59:06;4.50;;;0.90;;
73512;SDS011;61754;55.008;73.348;2022-09-12T01:01:43;2.50;;;0.90;;
73512;SDS011;61754;55.008;73.348;2022-09-12T01:04:10;0.82;;;0.80;;
73512;SDS011;61754;55.008;73.348;2022-09-12T01:06:38;1.27;;;0.63;;
73512;SDS011;61754;55.008;73.348;2022-09-12T01:09:16;2.72;;;1.00;;
73512;SDS011;61754;55.008;73.348;2022-09-12T01:11:47;0.95;;;0.90;;
73512;SDS011;61754;55.008;73.348;2022-09-12T01:14:14;1.80;;;0.80;;
73512;SDS011;61754;55.008;73.348;2022-09-12T01:16:49;1.42;;;0.70;;
73512;SDS011;61754;55.008;73.348;2022-09-12T01:22:18;4.50;;;0.80;;
73512;SDS011;61754;55.008;73.348;2022-09-12T01:25:08;1.45;;;1.10;;
73512;SDS011;61754;55.008;73.348;2022-09-12T01:33:00;5.00;;;1.10;;
73512;SDS011;61754;55.008;73.348;2022-09-12T01:38:37;3.03;;;1.00;;
73512;SDS011;61754;55.008;73.348;2022-09-12T01:41:16;1.23;;;1.02;;
73512;SDS011;61754;55.008;73.348;2022-09-12T01:43:46;0.95;;;0.73;;
73512;SDS011;61754;55.008;73.348;2022-09-12T01:51:10;2.67;;;0.80;;
73512;SDS011;61754;55.008;73.348;2022-09-12T01:53:42;3.42;;;1.05;;
73512;SDS011;61754;55.008;73.348;2022-09-12T01:58:46;5.00;;;0.93;;
73512;SDS011;61754;55.008;73.348;2022-09-12T02:01:15;1.42;;;1.05;;
73512;SDS011;61754;55.008;73.348;2022-09-12T02:03:43;1.38;;;0.70;;
73512;SDS011;61754;55.008;73.348;2022-09-12T02:06:22;2.08;;;0.85;;
73512;SDS011;61754;55.008;73.348;2022-09-12T02:08:51;1.75;;;0.90;;
73512;SDS011;61754;55.008;73.348;2022-09-12T02:11:18;7.45;;;1.20;;
73512;SDS011;61754;55.008;73.348;2022-09-12T02:13:53;2.15;;;1.30;;
73512;SDS011;61754;55.008;73.348;2022-09-12T02:19:19;5.93;;;2.17;;
73512;SDS011;61754;55.008;73.348;2022-09-12T02:21:49;2.67;;;1.90;;
73512;SDS011;61754;55.008;73.348;2022-09-12T02:24:21;5.40;;;2.25;;
73512;SDS011;61754;55.008;73.348;2022-09-12T02:26:50;3.60;;;2.33;;
73512;SDS011;61754;55.008;73.348;2022-09-12T02:29:23;7.03;;;3.10;;
73512;SDS011;61754;55.008;73.348;2022-09-12T02:31:56;4.57;;;2.83;;
73512;SDS011;61754;55.008;73.348;2022-09-12T02:39:30;4.82;;;2.58;;
73512;SDS011;61754;55.008;73.348;2022-09-12T02:42:01;4.50;;;2.03;;
73512;SDS011;61754;55.008;73.348;2022-09-12T02:44:28;3.42;;;1.67;;
73512;SDS011;61754;55.008;73.348;2022-09-12T02:46:55;3.38;;;1.63;;
73512;SDS011;61754;55.008;73.348;2022-09-12T02:49:23;5.85;;;1.95;;
73512;SDS011;61754;55.008;73.348;2022-09-12T02:51:59;3.42;;;2.25;;
73512;SDS011;61754;55.008;73.348;2022-09-12T02:54:25;5.05;;;2.40;;
73512;SDS011;61754;55.008;73.348;2022-09-12T02:56:57;5.43;;;1.92;;
73512;SDS011;61754;55.008;73.348;2022-09-12T02:59:23;7.40;;;2.45;;
73512;SDS011;61754;55.008;73.348;2022-09-12T03:17:29;3.10;;;1.77;;
73512;SDS011;61754;55.008;73.348;2022-09-12T03:22:50;4.35;;;1.70;;
73512;SDS011;61754;55.008;73.348;2022-09-12T03:28:06;4.60;;;1.45;;
73512;SDS011;61754;55.008;73.348;2022-09-12T03:30:39;4.13;;;1.20;;
73512;SDS011;61754;55.008;73.348;2022-09-12T03:33:09;3.97;;;0.63;;
73512;SDS011;61754;55.008;73.348;2022-09-12T03:35:40;9.15;;;1.50;;
73512;SDS011;61754;55.008;73.348;2022-09-12T03:38:06;4.03;;;1.63;;
73512;SDS011;61754;55.008;73.348;2022-09-12T03:40:33;5.28;;;1.50;;
73512;SDS011;61754;55.008;73.348;2022-09-12T03:43:05;11.40;;;1.48;;
73512;SDS011;61754;55.008;73.348;2022-09-12T03:45:32;4.05;;;0.90;;
73512;SDS011;61754;55.008;73.348;2022-09-12T03:48:02;1.25;;;0.98;;
73512;SDS011;61754;55.008;73.348;2022-09-12T03:50:28;24.30;;;2.00;;
73512;SDS011;61754;55.008;73.348;2022-09-12T03:52:55;11.48;;;1.42;;
73512;SDS011;61754;55.008;73.348;2022-09-12T03:55:32;4.05;;;0.90;;
73512;SDS011;61754;55.008;73.348;2022-09-12T03:57:58;3.58;;;1.00;;
73512;SDS011;61754;55.008;73.348;2022-09-12T04:00:34;9.05;;;1.42;;
73512;SDS011;61754;55.008;73.348;2022-09-12T04:03:00;3.58;;;1.30;;
73512;SDS011;61754;55.008;73.348;2022-09-12T04:05:31;5.00;;;1.07;;
73512;SDS011;61754;55.008;73.348;2022-09-12T04:07:57;3.78;;;0.90;;
73512;SDS011;61754;55.008;73.348;2022-09-12T04:10:23;1.67;;;0.60;;
73512;SDS011;61754;55.008;73.348;2022-09-12T04:12:49;5.22;;;1.48;;
73512;SDS011;61754;55.008;73.348;2022-09-12T04:15:15;4.57;;;0.47;;
73512;SDS011;61754;55.008;73.348;2022-09-12T04:17:41;12.15;;;1.40;;
73512;SDS011;61754;55.008;73.348;2022-09-12T04:20:07;3.90;;;0.85;;
73512;SDS011;61754;55.008;73.348;2022-09-12T04:22:33;3.40;;;0.63;;
73512;SDS011;61754;55.008;73.348;2022-09-12T04:25:05;2.13;;;0.63;;
73512;SDS011;61754;55.008;73.348;2022-09-12T04:27:31;15.45;;;0.95;;
73512;SDS011;61754;55.008;73.348;2022-09-12T04:29:57;15.55;;;1.80;;
73512;SDS011;61754;55.008;73.348;2022-09-12T04:32:33;7.03;;;0.82;;
73512;SDS011;61754;55.008;73.348;2022-09-12T04:34:59;11.88;;;1.88;;
73512;SDS011;61754;55.008;73.348;2022-09-12T04:37:30;14.15;;;1.08;;
73512;SDS011;61754;55.008;73.348;2022-09-12T04:39:56;13.15;;;1.20;;
73512;SDS011;61754;55.008;73.348;2022-09-12T04:42:23;15.82;;;0.93;;
73512;SDS011;61754;55.008;73.348;2022-09-12T04:44:49;2.03;;;0.40;;
73512;SDS011;61754;55.008;73.348;2022-09-12T04:47:17;32.58;;;1.48;;
73512;SDS011;61754;55.008;73.348;2022-09-12T04:49:43;24.90;;;1.77;;
73512;SDS011;61754;55.008;73.348;2022-09-12T04:52:09;20.02;;;1.25;;
73512;SDS011;61754;55.008;73.348;2022-09-12T04:54:35;5.88;;;1.02;;
73512;SDS011;61754;55.008;73.348;2022-09-12T04:57:02;8.60;;;1.00;;
73512;SDS011;61754;55.008;73.348;2022-09-12T04:59:28;25.02;;;1.10;;
73512;SDS011;61754;55.008;73.348;2022-09-12T05:01:54;11.48;;;0.90;;
73512;SDS011;61754;55.008;73.348;2022-09-12T05:04:27;5.72;;;0.60;;
73512;SDS011;61754;55.008;73.348;2022-09-12T05:06:53;21.77;;;1.30;;
73512;SDS011;61754;55.008;73.348;2022-09-12T05:09:19;18.80;;;1.38;;
73512;SDS011;61754;55.008;73.348;2022-09-12T05:11:45;14.90;;;1.40;;
73512;SDS011;61754;55.008;73.348;2022-09-12T05:14:16;26.08;;;1.67;;
73512;SDS011;61754;55.008;73.348;2022-09-12T05:16:42;8.27;;;0.77;;
73512;SDS011;61754;55.008;73.348;2022-09-12T05:19:10;3.65;;;0.60;;
73512;SDS011;61754;55.008;73.348;2022-09-12T05:21:36;5.65;;;0.80;;
73512;SDS011;61754;55.008;73.348;2022-09-12T05:24:08;8.23;;;1.20;;
73512;SDS011;61754;55.008;73.348;2022-09-12T05:26:39;1.02;;;0.90;;
73512;SDS011;61754;55.008;73.348;2022-09-12T05:29:15;1.10;;;0.93;;
73512;SDS011;61754;55.008;73.348;2022-09-12T05:31:45;1.50;;;0.60;;
73512;SDS011;61754;55.008;73.348;2022-09-12T05:34:17;1.15;;;0.68;;
73512;SDS011;61754;55.008;73.348;2022-09-12T05:36:52;1.35;;;0.70;;
73512;SDS011;61754;55.008;73.348;2022-09-12T05:39:18;8.32;;;0.88;;
73512;SDS011;61754;55.008;73.348;2022-09-12T05:41:45;6.65;;;0.70;;
73512;SDS011;61754;55.008;73.348;2022-09-12T05:44:14;3.15;;;0.90;;
73512;SDS011;61754;55.008;73.348;2022-09-12T05:46:43;8.73;;;0.90;;
73512;SDS011;61754;55.008;73.348;2022-09-12T05:49:15;5.95;;;1.00;;
73512;SDS011;61754;55.008;73.348;2022-09-12T05:51:42;11.48;;;1.25;;
73512;SDS011;61754;55.008;73.348;2022-09-12T05:54:13;9.75;;;1.10;;
73512;SDS011;61754;55.008;73.348;2022-09-12T05:56:40;5.43;;;1.10;;
73512;SDS011;61754;55.008;73.348;2022-09-12T05:59:27;3.25;;;0.65;;
73512;SDS011;61754;55.008;73.348;2022-09-12T06:01:53;2.17;;;0.50;;
73512;SDS011;61754;55.008;73.348;2022-09-12T06:04:20;0.73;;;0.60;;
73512;SDS011;61754;55.008;73.348;2022-09-12T06:06:46;0.38;;;0.38;;
73512;SDS011;61754;55.008;73.348;2022-09-12T06:09:14;1.00;;;0.60;;
73512;SDS011;61754;55.008;73.348;2022-09-12T06:11:40;19.70;;;2.50;;
73512;SDS011;61754;55.008;73.348;2022-09-12T06:14:11;2.83;;;1.10;;
73512;SDS011;61754;55.008;73.348;2022-09-12T06:16:38;1.25;;;0.73;;
73512;SDS011;61754;55.008;73.348;2022-09-12T06:19:05;2.25;;;0.93;;
73512;SDS011;61754;55.008;73.348;2022-09-12T06:21:32;5.45;;;0.90;;
73512;SDS011;61754;55.008;73.348;2022-09-12T06:23:59;20.63;;;1.55;;
73512;SDS011;61754;55.008;73.348;2022-09-12T06:26:26;12.40;;;1.00;;
73512;SDS011;61754;55.008;73.348;2022-09-12T06:28:58;20.92;;;2.40;;
73512;SDS011;61754;55.008;73.348;2022-09-12T06:31:26;3.85;;;0.80;;
73512;SDS011;61754;55.008;73.348;2022-09-12T06:34:00;3.90;;;0.77;;
73512;SDS011;61754;55.008;73.348;2022-09-12T06:36:27;5.43;;;1.05;;
73512;SDS011;61754;55.008;73.348;2022-09-12T06:39:05;6.63;;;0.75;;
73512;SDS011;61754;55.008;73.348;2022-09-12T06:41:32;3.13;;;0.90;;
73512;SDS011;61754;55.008;73.348;2022-09-12T06:43:58;4.47;;;1.38;;
73512;SDS011;61754;55.008;73.348;2022-09-12T06:46:26;4.85;;;0.90;;
73512;SDS011;61754;55.008;73.348;2022-09-12T06:48:54;1.85;;;0.60;;
73512;SDS011;61754;55.008;73.348;2022-09-12T06:51:26;0.63;;;0.63;;
73512;SDS011;61754;55.008;73.348;2022-09-12T06:54:01;2.67;;;0.50;;
73512;SDS011;61754;55.008;73.348;2022-09-12T06:56:27;2.50;;;1.00;;
73512;SDS011;61754;55.008;73.348;2022-09-12T06:58:56;13.25;;;1.08;;
73512;SDS011;61754;55.008;73.348;2022-09-12T07:01:26;8.55;;;1.70;;
73512;SDS011;61754;55.008;73.348;2022-09-12T07:03:53;3.30;;;0.70;;
73512;SDS011;61754;55.008;73.348;2022-09-12T07:06:21;4.68;;;0.80;;
73512;SDS011;61754;55.008;73.348;2022-09-12T07:08:59;11.90;;;1.13;;
73512;SDS011;61754;55.008;73.348;2022-09-12T07:11:26;4.72;;;0.60;;
73512;SDS011;61754;55.008;73.348;2022-09-12T07:13:54;10.60;;;0.90;;
73512;SDS011;61754;55.008;73.348;2022-09-12T07:16:20;6.30;;;1.02;;
73512;SDS011;61754;55.008;73.348;2022-09-12T07:18:50;1.48;;;0.80;;
73512;SDS011;61754;55.008;73.348;2022-09-12T07:21:16;2.00;;;1.05;;
73512;SDS011;61754;55.008;73.348;2022-09-12T07:23:53;8.10;;;2.65;;
73512;SDS011;61754;55.008;73.348;2022-09-12T07:26:33;2.65;;;0.77;;
73512;SDS011;61754;55.008;73.348;2022-09-12T07:28:59;5.53;;;0.70;;
73512;SDS011;61754;55.008;73.348;2022-09-12T07:31:26;3.17;;;0.80;;
73512;SDS011;61754;55.008;73.348;2022-09-12T07:33:52;1.52;;;0.50;;
73512;SDS011;61754;55.008;73.348;2022-09-12T07:36:19;4.07;;;0.70;;
73512;SDS011;61754;55.008;73.348;2022-09-12T07:38:45;1.13;;;0.55;;
73512;SDS011;61754;55.008;73.348;2022-09-12T07:41:17;1.23;;;0.70;;
73512;SDS011;61754;55.008;73.348;2022-09-12T07:43:44;3.42;;;0.90;;
73512;SDS011;61754;55.008;73.348;2022-09-12T07:46:10;1.13;;;0.50;;
73512;SDS011;61754;55.008;73.348;2022-09-12T07:48:40;2.58;;;0.50;;
73512;SDS011;61754;55.008;73.348;2022-09-12T07:51:07;7.38;;;0.73;;
73512;SDS011;61754;55.008;73.348;2022-09-12T07:53:39;0.63;;;0.50;;
73512;SDS011;61754;55.008;73.348;2022-09-12T07:56:05;0.68;;;0.65;;
73512;SDS011;61754;55.008;73.348;2022-09-12T07:58:32;2.03;;;0.60;;
73512;SDS011;61754;55.008;73.348;2022-09-12T08:01:00;4.95;;;1.58;;
73512;SDS011;61754;55.008;73.348;2022-09-12T08:03:32;6.00;;;0.60;;
73512;SDS011;61754;55.008;73.348;2022-09-12T08:06:04;0.63;;;0.63;;
73512;SDS011;61754;55.008;73.348;2022-09-12T08:08:40;0.80;;;0.80;;
73512;SDS011;61754;55.008;73.348;2022-09-12T08:11:07;2.88;;;1.15;;
73512;SDS011;61754;55.008;73.348;2022-09-12T08:13:34;5.32;;;1.05;;
73512;SDS011;61754;55.008;73.348;2022-09-12T08:16:02;2.85;;;0.82;;
73512;SDS011;61754;55.008;73.348;2022-09-12T08:18:28;1.73;;;1.00;;
73512;SDS011;61754;55.008;73.348;2022-09-12T08:20:59;1.00;;;0.90;;
73512;SDS011;61754;55.008;73.348;2022-09-12T08:23:30;1.23;;;0.90;;
73512;SDS011;61754;55.008;73.348;2022-09-12T08:26:02;0.63;;;0.50;;
73512;SDS011;61754;55.008;73.348;2022-09-12T08:28:33;1.65;;;0.60;;
73512;SDS011;61754;55.008;73.348;2022-09-12T08:31:03;2.55;;;0.75;;
73512;SDS011;61754;55.008;73.348;2022-09-12T08:33:32;0.80;;;0.80;;
73512;SDS011;61754;55.008;73.348;2022-09-12T08:36:05;0.80;;;0.77;;
73512;SDS011;61754;55.008;73.348;2022-09-12T08:38:32;3.60;;;1.23;;
73512;SDS011;61754;55.008;73.348;2022-09-12T08:41:10;6.93;;;1.50;;
73512;SDS011;61754;55.008;73.348;2022-09-12T08:44:06;2.75;;;0.70;;
73512;SDS011;61754;55.008;73.348;2022-09-12T08:49:16;10.90;;;1.77;;
73512;SDS011;61754;55.008;73.348;2022-09-12T08:51:46;18.43;;;1.90;;
73512;SDS011;61754;55.008;73.348;2022-09-12T08:54:45;17.67;;;1.55;;
73512;SDS011;61754;55.008;73.348;2022-09-12T08:57:04;7.25;;;2.63;;
73512;SDS011;61754;55.008;73.348;2022-09-12T08:59:37;13.65;;;1.77;;
73512;SDS011;61754;55.008;73.348;2022-09-12T09:02:04;3.55;;;1.40;;
73512;SDS011;61754;55.008;73.348;2022-09-12T09:04:48;3.03;;;1.30;;
73512;SDS011;61754;55.008;73.348;2022-09-12T09:16:08;6.20;;;1.27;;
73512;SDS011;61754;55.008;73.348;2022-09-12T09:18:48;1.10;;;0.70;;
73512;SDS011;61754;55.008;73.348;2022-09-12T09:21:36;5.53;;;0.90;;
73512;SDS011;61754;55.008;73.348;2022-09-12T09:24:04;5.78;;;1.20;;
73512;SDS011;61754;55.008;73.348;2022-09-12T09:29:26;30.95;;;4.10;;
73512;SDS011;61754;55.008;73.348;2022-09-12T09:31:53;20.08;;;3.28;;
73512;SDS011;61754;55.008;73.348;2022-09-12T09:34:21;12.23;;;1.95;;
73512;SDS011;61754;55.008;73.348;2022-09-12T09:44:46;11.27;;;2.03;;
73512;SDS011;61754;55.008;73.348;2022-09-12T09:47:16;11.70;;;2.60;;
73512;SDS011;61754;55.008;73.348;2022-09-12T09:49:43;17.45;;;2.85;;
73512;SDS011;61754;55.008;73.348;2022-09-12T09:52:10;7.68;;;1.67;;
73512;SDS011;61754;55.008;73.348;2022-09-12T09:54:48;39.90;;;3.80;;
73512;SDS011;61754;55.008;73.348;2022-09-12T10:00:30;20.92;;;2.45;;
73512;SDS011;61754;55.008;73.348;2022-09-12T10:03:21;24.08;;;2.08;;
73512;SDS011;61754;55.008;73.348;2022-09-12T10:05:53;25.95;;;2.03;;
73512;SDS011;61754;55.008;73.348;2022-09-12T10:11:21;58.53;;;5.88;;
73512;SDS011;61754;55.008;73.348;2022-09-12T10:13:42;34.83;;;4.53;;
73512;SDS011;61754;55.008;73.348;2022-09-12T10:18:48;20.98;;;4.57;;
73512;SDS011;61754;55.008;73.348;2022-09-12T10:24:20;7.90;;;2.22;;
73512;SDS011;61754;55.008;73.348;2022-09-12T10:29:32;31.63;;;4.15;;
73512;SDS011;61754;55.008;73.348;2022-09-12T10:32:00;14.07;;;2.97;;
73512;SDS011;61754;55.008;73.348;2022-09-12T10:34:34;25.08;;;3.42;;
73512;SDS011;61754;55.008;73.348;2022-09-12T10:37:02;12.88;;;2.65;;
73512;SDS011;61754;55.008;73.348;2022-09-12T10:39:28;23.30;;;2.90;;
73512;SDS011;61754;55.008;73.348;2022-09-12T10:41:55;13.00;;;1.80;;
73512;SDS011;61754;55.008;73.348;2022-09-12T10:44:26;21.02;;;2.30;;
73512;SDS011;61754;55.008;73.348;2022-09-12T10:46:52;35.35;;;3.28;;
73512;SDS011;61754;55.008;73.348;2022-09-12T10:49:36;19.70;;;2.45;;
73512;SDS011;61754;55.008;73.348;2022-09-12T10:52:23;19.35;;;2.47;;
73512;SDS011;61754;55.008;73.348;2022-09-12T10:54:50;53.33;;;4.05;;
73512;SDS011;61754;55.008;73.348;2022-09-12T11:00:02;21.88;;;2.80;;
73512;SDS011;61754;55.008;73.348;2022-09-12T11:07:48;27.02;;;2.80;;
73512;SDS011;61754;55.008;73.348;2022-09-12T11:10:50;10.77;;;2.13;;
73512;SDS011;61754;55.008;73.348;2022-09-12T11:13:14;7.07;;;1.60;;
73512;SDS011;61754;55.008;73.348;2022-09-12T11:15:47;6.30;;;2.20;;
73512;SDS011;61754;55.008;73.348;2022-09-12T11:25:55;12.32;;;2.60;;
73512;SDS011;61754;55.008;73.348;2022-09-12T11:33:43;10.15;;;2.53;;
73512;SDS011;61754;55.008;73.348;2022-09-12T11:36:20;10.40;;;2.30;;
73512;SDS011;61754;55.008;73.348;2022-09-12T11:38:55;5.03;;;1.67;;
73512;SDS011;61754;55.008;73.348;2022-09-12T11:41:25;11.43;;;2.58;;
73512;SDS011;61754;55.008;73.348;2022-09-12T11:44:03;10.43;;;1.92;;
73512;SDS011;61754;55.008;73.348;2022-09-12T11:46:45;7.30;;;2.03;;
73512;SDS011;61754;55.008;73.348;2022-09-12T11:49:25;7.30;;;1.52;;
73512;SDS011;61754;55.008;73.348;2022-09-12T11:52:00;10.02;;;1.75;;
73512;SDS011;61754;55.008;73.348;2022-09-12T11:57:00;9.32;;;2.08;;
73512;SDS011;61754;55.008;73.348;2022-09-12T11:59:43;13.68;;;2.50;;
73512;SDS011;61754;55.008;73.348;2022-09-12T12:02:30;22.90;;;4.00;;
73512;SDS011;61754;55.008;73.348;2022-09-12T12:05:14;11.40;;;3.50;;
73512;SDS011;61754;55.008;73.348;2022-09-12T12:07:42;21.15;;;3.75;;
73512;SDS011;61754;55.008;73.348;2022-09-12T12:10:35;23.70;;;5.63;;
73512;SDS011;61754;55.008;73.348;2022-09-12T12:13:14;31.55;;;5.57;;
73512;SDS011;61754;55.008;73.348;2022-09-12T12:15:46;56.65;;;10.30;;
73512;SDS011;61754;55.008;73.348;2022-09-12T12:18:17;35.13;;;5.63;;
73512;SDS011;61754;55.008;73.348;2022-09-12T12:20:45;32.17;;;8.05;;
73512;SDS011;61754;55.008;73.348;2022-09-12T12:23:23;26.25;;;7.43;;
73512;SDS011;61754;55.008;73.348;2022-09-12T12:25:56;31.92;;;8.65;;
73512;SDS011;61754;55.008;73.348;2022-09-12T12:31:15;29.17;;;7.75;;
73512;SDS011;61754;55.008;73.348;2022-09-12T12:41:59;49.10;;;18.35;;
73512;SDS011;61754;55.008;73.348;2022-09-12T12:49:39;40.03;;;17.13;;
73512;SDS011;61754;55.008;73.348;2022-09-12T12:52:14;48.38;;;15.52;;
73512;SDS011;61754;55.008;73.348;2022-09-12T12:57:25;24.52;;;9.20;;
73512;SDS011;61754;55.008;73.348;2022-09-12T13:00:02;25.20;;;6.93;;
73512;SDS011;61754;55.008;73.348;2022-09-12T13:02:48;25.23;;;5.63;;
73512;SDS011;61754;55.008;73.348;2022-09-12T13:05:18;26.92;;;5.30;;
73512;SDS011;61754;55.008;73.348;2022-09-12T13:07:45;34.10;;;6.07;;
73512;SDS011;61754;55.008;73.348;2022-09-12T13:10:23;21.13;;;4.88;;
73512;SDS011;61754;55.008;73.348;2022-09-12T13:12:59;39.75;;;6.28;;
73512;SDS011;61754;55.008;73.348;2022-09-12T13:18:09;29.42;;;6.28;;
73512;SDS011;61754;55.008;73.348;2022-09-12T13:20:58;29.52;;;5.93;;
73512;SDS011;61754;55.008;73.348;2022-09-12T13:23:26;42.85;;;9.55;;
73512;SDS011;61754;55.008;73.348;2022-09-12T13:25:56;41.28;;;11.15;;
73512;SDS011;61754;55.008;73.348;2022-09-12T13:28:23;54.95;;;12.98;;
73512;SDS011;61754;55.008;73.348;2022-09-12T13:42:01;72.07;;;21.67;;
73512;SDS011;61754;55.008;73.348;2022-09-12T13:45:00;81.63;;;29.27;;
73512;SDS011;61754;55.008;73.348;2022-09-12T13:47:37;91.20;;;27.25;;
73512;SDS011;61754;55.008;73.348;2022-09-12T13:50:17;85.10;;;25.88;;
73512;SDS011;61754;55.008;73.348;2022-09-12T13:52:47;86.55;;;22.08;;
73512;SDS011;61754;55.008;73.348;2022-09-12T13:55:23;68.20;;;19.92;;
73512;SDS011;61754;55.008;73.348;2022-09-12T13:58:00;75.95;;;19.90;;
73512;SDS011;61754;55.008;73.348;2022-09-12T14:00:36;76.10;;;18.55;;
73512;SDS011;61754;55.008;73.348;2022-09-12T14:03:10;63.17;;;16.23;;
73512;SDS011;61754;55.008;73.348;2022-09-12T14:05:55;62.20;;;17.70;;
73512;SDS011;61754;55.008;73.348;2022-09-12T14:08:22;68.45;;;15.77;;
73512;SDS011;61754;55.008;73.348;2022-09-12T14:10:48;65.22;;;15.27;;
73512;SDS011;61754;55.008;73.348;2022-09-12T14:13:23;55.47;;;15.65;;
73512;SDS011;61754;55.008;73.348;2022-09-12T14:15:50;76.38;;;16.92;;
73512;SDS011;61754;55.008;73.348;2022-09-12T14:18:23;68.05;;;19.35;;
73512;SDS011;61754;55.008;73.348;2022-09-12T14:20:54;77.95;;;20.05;;
73512;SDS011;61754;55.008;73.348;2022-09-12T14:26:01;131.88;;;34.10;;
73512;SDS011;61754;55.008;73.348;2022-09-12T14:28:28;95.00;;;34.60;;
73512;SDS011;61754;55.008;73.348;2022-09-12T14:30:56;121.28;;;37.25;;
73512;SDS011;61754;55.008;73.348;2022-09-12T14:33:22;122.53;;;62.67;;
73512;SDS011;61754;55.008;73.348;2022-09-12T14:35:51;117.25;;;57.70;;
73512;SDS011;61754;55.008;73.348;2022-09-12T14:38:29;70.55;;;34.05;;
73512;SDS011;61754;55.008;73.348;2022-09-12T14:41:06;36.28;;;20.50;;
73512;SDS011;61754;55.008;73.348;2022-09-12T14:43:33;75.38;;;34.80;;
73512;SDS011;61754;55.008;73.348;2022-09-12T14:48:51;120.22;;;53.53;;
73512;SDS011;61754;55.008;73.348;2022-09-12T14:51:32;112.18;;;54.60;;
73512;SDS011;61754;55.008;73.348;2022-09-12T14:54:04;151.32;;;79.45;;
73512;SDS011;61754;55.008;73.348;2022-09-12T14:56:43;184.55;;;87.78;;
73512;SDS011;61754;55.008;73.348;2022-09-12T15:01:49;173.77;;;77.77;;
73512;SDS011;61754;55.008;73.348;2022-09-12T15:04:40;154.80;;;68.10;;
73512;SDS011;61754;55.008;73.348;2022-09-12T15:09:40;149.68;;;73.68;;
73512;SDS011;61754;55.008;73.348;2022-09-12T15:12:08;184.10;;;81.72;;
73512;SDS011;61754;55.008;73.348;2022-09-12T15:14:39;168.35;;;81.93;;
73512;SDS011;61754;55.008;73.348;2022-09-12T15:17:15;182.90;;;91.03;;
73512;SDS011;61754;55.008;73.348;2022-09-12T15:19:46;169.57;;;92.43;;
73512;SDS011;61754;55.008;73.348;2022-09-12T15:22:17;185.23;;;95.15;;
73512;SDS011;61754;55.008;73.348;2022-09-12T15:24:53;188.10;;;98.45;;
73512;SDS011;61754;55.008;73.348;2022-09-12T15:27:22;212.32;;;109.15;;
73512;SDS011;61754;55.008;73.348;2022-09-12T15:29:55;241.85;;;127.28;;
73512;SDS011;61754;55.008;73.348;2022-09-12T15:32:22;255.82;;;139.00;;
73512;SDS011;61754;55.008;73.348;2022-09-12T15:34:48;251.68;;;131.70;;
73512;SDS011;61754;55.008;73.348;2022-09-12T15:37:20;235.68;;;128.63;;
73512;SDS011;61754;55.008;73.348;2022-09-12T15:39:47;188.07;;;101.43;;
73512;SDS011;61754;55.008;73.348;2022-09-12T15:42:19;122.70;;;62.60;;
73512;SDS011;61754;55.008;73.348;2022-09-12T15:44:51;94.25;;;43.60;;
73512;SDS011;61754;55.008;73.348;2022-09-12T15:47:27;130.55;;;66.40;;
73512;SDS011;61754;55.008;73.348;2022-09-12T15:49:53;166.35;;;77.75;;
73512;SDS011;61754;55.008;73.348;2022-09-12T15:52:19;143.30;;;74.35;;
73512;SDS011;61754;55.008;73.348;2022-09-12T15:54:45;131.82;;;67.15;;
73512;SDS011;61754;55.008;73.348;2022-09-12T15:57:11;124.53;;;60.60;;
73512;SDS011;61754;55.008;73.348;2022-09-12T15:59:42;112.25;;;48.47;;
73512;SDS011;61754;55.008;73.348;2022-09-12T16:02:19;93.15;;;43.45;;
73512;SDS011;61754;55.008;73.348;2022-09-12T16:04:50;103.47;;;44.00;;
73512;SDS011;61754;55.008;73.348;2022-09-12T16:07:19;94.40;;;44.15;;
73512;SDS011;61754;55.008;73.348;2022-09-12T16:09:45;92.25;;;40.22;;
73512;SDS011;61754;55.008;73.348;2022-09-12T16:12:11;79.15;;;36.65;;
73512;SDS011;61754;55.008;73.348;2022-09-12T16:14:48;85.10;;;37.28;;
73512;SDS011;61754;55.008;73.348;2022-09-12T16:17:14;78.10;;;34.83;;
73512;SDS011;61754;55.008;73.348;2022-09-12T16:19:40;75.72;;;34.30;;
73512;SDS011;61754;55.008;73.348;2022-09-12T16:22:06;86.20;;;36.42;;
73512;SDS011;61754;55.008;73.348;2022-09-12T16:24:32;75.90;;;33.83;;
73512;SDS011;61754;55.008;73.348;2022-09-12T16:26:58;72.90;;;33.63;;
73512;SDS011;61754;55.008;73.348;2022-09-12T16:29:35;57.08;;;29.58;;
73512;SDS011;61754;55.008;73.348;2022-09-12T16:32:01;70.40;;;32.38;;
73512;SDS011;61754;55.008;73.348;2022-09-12T16:34:27;77.47;;;30.35;;
73512;SDS011;61754;55.008;73.348;2022-09-12T16:36:53;55.67;;;27.70;;
73512;SDS011;61754;55.008;73.348;2022-09-12T16:39:19;61.25;;;26.52;;
73512;SDS011;61754;55.008;73.348;2022-09-12T16:41:45;55.78;;;21.75;;
73512;SDS011;61754;55.008;73.348;2022-09-12T16:44:16;57.33;;;20.42;;
73512;SDS011;61754;55.008;73.348;2022-09-12T16:46:52;41.85;;;17.95;;
73512;SDS011;61754;55.008;73.348;2022-09-12T16:49:18;37.42;;;16.23;;
73512;SDS011;61754;55.008;73.348;2022-09-12T16:51:44;40.33;;;15.43;;
73512;SDS011;61754;55.008;73.348;2022-09-12T16:54:15;34.97;;;14.38;;
73512;SDS011;61754;55.008;73.348;2022-09-12T16:56:42;39.63;;;14.13;;
73512;SDS011;61754;55.008;73.348;2022-09-12T16:59:08;37.33;;;13.52;;
73512;SDS011;61754;55.008;73.348;2022-09-12T17:01:36;38.20;;;12.38;;
73512;SDS011;61754;55.008;73.348;2022-09-12T17:04:02;31.90;;;12.65;;
73512;SDS011;61754;55.008;73.348;2022-09-12T17:06:28;31.48;;;11.40;;
73512;SDS011;61754;55.008;73.348;2022-09-12T17:08:56;40.80;;;15.25;;
73512;SDS011;61754;55.008;73.348;2022-09-12T17:11:25;84.40;;;34.03;;
73512;SDS011;61754;55.008;73.348;2022-09-12T17:14:04;93.03;;;39.70;;
73512;SDS011;61754;55.008;73.348;2022-09-12T17:16:31;93.03;;;37.88;;
73512;SDS011;61754;55.008;73.348;2022-09-12T17:18:59;92.53;;;39.80;;
73512;SDS011;61754;55.008;73.348;2022-09-12T17:21:25;95.50;;;47.60;;